sensor_id;sensor_type;location;lat;lon;timestamp;pressure;altitude;pressure_sealevel;temperature;humidity
8756;BME280;4414;42.670;23.228;2024-03-06T00:00:56;92877.53;;;3.54;82.63
8756;BME280;4414;42.670;23.228;2024-03-06T00:03:22;92878.97;;;3.55;81.55
8756;BME280;4414;42.670;23.228;2024-03-06T00:05:47;92878.75;;;3.58;81.78
8756;BME280;4414;42.670;23.228;2024-03-06T00:08:13;92884.03;;;3.64;80.82
8756;BME280;4414;42.670;23.228;2024-03-06T00:10:40;92878.50;;;3.67;81.23
8756;BME280;4414;42.670;23.228;2024-03-06T00:13:06;92884.28;;;3.66;80.62
8756;BME280;4414;42.670;23.228;2024-03-06T00:15:31;92892.25;;;3.60;80.71
8756;BME280;4414;42.670;23.228;2024-03-06T00:17:56;92886.69;;;3.64;80.68
8756;BME280;4414;42.670;23.228;2024-03-06T00:20:23;92892.75;;;3.70;79.81
8756;BME280;4414;42.670;23.228;2024-03-06T00:22:49;92883.31;;;3.63;79.09
8756;BME280;4414;42.670;23.228;2024-03-06T00:25:14;92889.34;;;3.64;79.53
8756;BME280;4414;42.670;23.228;2024-03-06T00:27:40;92882.84;;;3.65;79.47
8756;BME280;4414;42.670;23.228;2024-03-06T00:30:06;92890.56;;;3.63;79.63
8756;BME280;4414;42.670;23.228;2024-03-06T00:32:32;92876.09;;;3.53;80.27
8756;BME280;4414;42.670;23.228;2024-03-06T00:34:57;92887.38;;;3.36;80.14
8756;BME280;4414;42.670;23.228;2024-03-06T00:37:22;92891.69;;;3.28;80.73
8756;BME280;4414;42.670;23.228;2024-03-06T00:39:48;92883.00;;;3.22;81.60
8756;BME280;4414;42.670;23.228;2024-03-06T00:42:13;92886.59;;;3.19;81.49
8756;BME280;4414;42.670;23.228;2024-03-06T01:02:53;92882.75;;;3.20;83.16
8756;BME280;4414;42.670;23.228;2024-03-06T01:05:19;92887.81;;;3.24;81.92
8756;BME280;4414;42.670;23.228;2024-03-06T01:10:20;92891.69;;;3.34;82.56
8756;BME280;4414;42.670;23.228;2024-03-06T01:12:45;92888.81;;;3.37;81.67
8756;BME280;4414;42.670;23.228;2024-03-06T01:15:11;92885.47;;;3.42;82.05
8756;BME280;4414;42.670;23.228;2024-03-06T02:00:33;92884.50;;;3.40;82.62
8756;BME280;4414;42.670;23.228;2024-03-06T02:08:22;92895.03;;;3.18;83.46
8756;BME280;4414;42.670;23.228;2024-03-06T02:10:48;92885.16;;;3.24;82.76
8756;BME280;4414;42.670;23.228;2024-03-06T02:15:49;92889.03;;;3.28;82.57
8756;BME280;4414;42.670;23.228;2024-03-06T02:18:15;92885.91;;;3.24;82.39
8756;BME280;4414;42.670;23.228;2024-03-06T02:20:41;92896.75;;;3.26;83.13
8756;BME280;4414;42.670;23.228;2024-03-06T02:23:06;92901.31;;;3.20;83.70
8756;BME280;4414;42.670;23.228;2024-03-06T02:25:32;92899.09;;;3.13;82.79
8756;BME280;4414;42.670;23.228;2024-03-06T02:27:58;92899.34;;;3.15;81.82
8756;BME280;4414;42.670;23.228;2024-03-06T02:32:59;92900.06;;;3.10;82.75
8756;BME280;4414;42.670;23.228;2024-03-06T02:35:24;92898.09;;;3.05;82.12
8756;BME280;4414;42.670;23.228;2024-03-06T02:37:50;92906.28;;;3.07;83.88
8756;BME280;4414;42.670;23.228;2024-03-06T02:40:15;92906.78;;;3.06;82.83
8756;BME280;4414;42.670;23.228;2024-03-06T02:42:41;92909.88;;;2.99;82.46
8756;BME280;4414;42.670;23.228;2024-03-06T02:45:07;92918.25;;;2.86;83.39
8756;BME280;4414;42.670;23.228;2024-03-06T02:47:33;92908.09;;;2.79;83.97
8756;BME280;4414;42.670;23.228;2024-03-06T02:49:59;92917.75;;;2.82;83.18
8756;BME280;4414;42.670;23.228;2024-03-06T02:52:24;92900.72;;;3.00;82.49
8756;BME280;4414;42.670;23.228;2024-03-06T02:54:50;92904.38;;;3.08;82.30
8756;BME280;4414;42.670;23.228;2024-03-06T02:57:15;92905.13;;;3.14;81.86
8756;BME280;4414;42.670;23.228;2024-03-06T02:59:41;92907.78;;;3.19;80.81
8756;BME280;4414;42.670;23.228;2024-03-06T03:02:06;92908.75;;;3.22;80.76
8756;BME280;4414;42.670;23.228;2024-03-06T03:04:32;92916.44;;;3.14;80.46
8756;BME280;4414;42.670;23.228;2024-03-06T03:06:57;92906.31;;;3.13;81.72
8756;BME280;4414;42.670;23.228;2024-03-06T03:09:22;92914.75;;;3.17;80.47
8756;BME280;4414;42.670;23.228;2024-03-06T03:17:00;92918.03;;;2.90;80.85
8756;BME280;4414;42.670;23.228;2024-03-06T03:19:25;92914.16;;;2.91;81.47
8756;BME280;4414;42.670;23.228;2024-03-06T03:32:52;92918.69;;;2.79;82.39
8756;BME280;4414;42.670;23.228;2024-03-06T03:35:18;92916.06;;;2.85;82.23
8756;BME280;4414;42.670;23.228;2024-03-06T03:40:21;92923.03;;;2.82;82.18
8756;BME280;4414;42.670;23.228;2024-03-06T03:42:48;92919.44;;;2.85;81.75
8756;BME280;4414;42.670;23.228;2024-03-06T03:45:13;92919.19;;;2.83;82.67
8756;BME280;4414;42.670;23.228;2024-03-06T03:47:40;92915.09;;;2.82;82.82
8756;BME280;4414;42.670;23.228;2024-03-06T03:50:08;92919.91;;;2.84;82.34
8756;BME280;4414;42.670;23.228;2024-03-06T03:55:03;92921.59;;;2.81;83.30
8756;BME280;4414;42.670;23.228;2024-03-06T03:57:29;92915.75;;;2.72;83.87
8756;BME280;4414;42.670;23.228;2024-03-06T03:59:55;92926.53;;;2.63;84.55
8756;BME280;4414;42.670;23.228;2024-03-06T04:02:21;92927.25;;;2.63;84.00
8756;BME280;4414;42.670;23.228;2024-03-06T04:04:46;92923.69;;;2.66;83.78
8756;BME280;4414;42.670;23.228;2024-03-06T04:07:11;92933.78;;;2.68;84.18
8756;BME280;4414;42.670;23.228;2024-03-06T04:09:37;92935.97;;;2.69;84.17
8756;BME280;4414;42.670;23.228;2024-03-06T04:12:04;92927.03;;;2.67;84.75
8756;BME280;4414;42.670;23.228;2024-03-06T04:14:30;92941.47;;;2.66;84.87
8756;BME280;4414;42.670;23.228;2024-03-06T04:16:55;92939.06;;;2.62;85.53
8756;BME280;4414;42.670;23.228;2024-03-06T04:19:21;92950.31;;;2.57;85.57
8756;BME280;4414;42.670;23.228;2024-03-06T04:21:46;92945.13;;;2.68;84.54
8756;BME280;4414;42.670;23.228;2024-03-06T04:24:12;92939.13;;;2.79;83.57
8756;BME280;4414;42.670;23.228;2024-03-06T04:26:37;92954.81;;;2.82;82.67
8756;BME280;4414;42.670;23.228;2024-03-06T04:29:03;92956.28;;;2.89;82.61
8756;BME280;4414;42.670;23.228;2024-03-06T04:31:28;92961.38;;;2.92;83.18
8756;BME280;4414;42.670;23.228;2024-03-06T04:33:54;92958.75;;;2.98;82.49
8756;BME280;4414;42.670;23.228;2024-03-06T04:39:01;92957.78;;;2.95;84.34
8756;BME280;4414;42.670;23.228;2024-03-06T04:41:32;92958.25;;;2.94;84.12
8756;BME280;4414;42.670;23.228;2024-03-06T04:43:58;92960.91;;;2.94;83.53
8756;BME280;4414;42.670;23.228;2024-03-06T04:46:25;92960.44;;;2.95;83.29
8756;BME280;4414;42.670;23.228;2024-03-06T04:48:50;92964.03;;;2.92;83.62
8756;BME280;4414;42.670;23.228;2024-03-06T04:51:15;92971.72;;;2.90;83.88
8756;BME280;4414;42.670;23.228;2024-03-06T04:53:41;92975.50;;;2.78;83.47
8756;BME280;4414;42.670;23.228;2024-03-06T04:56:07;92980.81;;;2.78;84.17
8756;BME280;4414;42.670;23.228;2024-03-06T04:58:32;92975.34;;;2.93;84.01
8756;BME280;4414;42.670;23.228;2024-03-06T05:00:58;92970.84;;;3.04;82.80
8756;BME280;4414;42.670;23.228;2024-03-06T05:03:23;92977.41;;;3.14;82.51
8756;BME280;4414;42.670;23.228;2024-03-06T05:05:49;92976.94;;;3.21;81.16
8756;BME280;4414;42.670;23.228;2024-03-06T05:08:14;92974.53;;;3.23;81.64
8756;BME280;4414;42.670;23.228;2024-03-06T05:10:40;92981.75;;;3.23;81.52
8756;BME280;4414;42.670;23.228;2024-03-06T05:13:05;92978.66;;;3.24;82.06
8756;BME280;4414;42.670;23.228;2024-03-06T05:15:31;92977.97;;;3.35;82.03
8756;BME280;4414;42.670;23.228;2024-03-06T05:17:56;92982.34;;;3.43;81.87
8756;BME280;4414;42.670;23.228;2024-03-06T05:20:21;92981.66;;;3.49;82.04
8756;BME280;4414;42.670;23.228;2024-03-06T05:22:47;92980.19;;;3.47;82.55
8756;BME280;4414;42.670;23.228;2024-03-06T05:25:13;92982.84;;;3.47;81.80
8756;BME280;4414;42.670;23.228;2024-03-06T05:30:13;92993.81;;;3.83;82.09
8756;BME280;4414;42.670;23.228;2024-03-06T05:32:40;92990.47;;;3.99;81.87
8756;BME280;4414;42.670;23.228;2024-03-06T05:35:07;92989.06;;;4.14;80.93
8756;BME280;4414;42.670;23.228;2024-03-06T05:37:35;92994.63;;;4.27;81.58
8756;BME280;4414;42.670;23.228;2024-03-06T05:40:01;92997.78;;;4.43;80.94
8756;BME280;4414;42.670;23.228;2024-03-06T05:42:30;92989.56;;;4.52;81.34
8756;BME280;4414;42.670;23.228;2024-03-06T05:44:56;93000.91;;;4.63;81.53
8756;BME280;4414;42.670;23.228;2024-03-06T05:47:26;93001.88;;;4.77;80.13
8756;BME280;4414;42.670;23.228;2024-03-06T05:49:51;93005.75;;;4.87;80.69
8756;BME280;4414;42.670;23.228;2024-03-06T05:52:17;93009.13;;;4.93;79.91
8756;BME280;4414;42.670;23.228;2024-03-06T05:54:43;93013.47;;;5.07;80.70
8756;BME280;4414;42.670;23.228;2024-03-06T05:57:08;93008.38;;;5.14;80.14
8756;BME280;4414;42.670;23.228;2024-03-06T05:59:33;93017.06;;;5.21;78.74
8756;BME280;4414;42.670;23.228;2024-03-06T06:01:59;93016.09;;;5.12;78.84
8756;BME280;4414;42.670;23.228;2024-03-06T06:04:27;93009.56;;;5.08;78.39
8756;BME280;4414;42.670;23.228;2024-03-06T06:06:53;93015.34;;;5.17;78.94
8756;BME280;4414;42.670;23.228;2024-03-06T06:09:18;93020.16;;;5.30;78.89
8756;BME280;4414;42.670;23.228;2024-03-06T06:11:44;93018.22;;;5.36;77.92
8756;BME280;4414;42.670;23.228;2024-03-06T06:14:10;93017.72;;;5.43;77.32
8756;BME280;4414;42.670;23.228;2024-03-06T06:16:37;93023.50;;;5.53;78.58
8756;BME280;4414;42.670;23.228;2024-03-06T06:19:03;93026.38;;;5.60;78.66
8756;BME280;4414;42.670;23.228;2024-03-06T06:21:30;93020.78;;;5.64;78.15
8756;BME280;4414;42.670;23.228;2024-03-06T06:23:55;93021.25;;;5.73;78.04
8756;BME280;4414;42.670;23.228;2024-03-06T06:26:21;93018.56;;;5.84;78.73
8756;BME280;4414;42.670;23.228;2024-03-06T06:28:47;93021.66;;;5.94;77.77
8756;BME280;4414;42.670;23.228;2024-03-06T06:31:14;93022.34;;;6.06;77.04
8756;BME280;4414;42.670;23.228;2024-03-06T06:33:40;93019.91;;;6.13;78.29
8756;BME280;4414;42.670;23.228;2024-03-06T06:36:06;93017.38;;;6.26;76.89
8756;BME280;4414;42.670;23.228;2024-03-06T06:38:31;93015.38;;;6.38;75.92
8756;BME280;4414;42.670;23.228;2024-03-06T06:40:57;93017.94;;;6.54;75.90
8756;BME280;4414;42.670;23.228;2024-03-06T06:43:22;93012.50;;;6.65;76.62
8756;BME280;4414;42.670;23.228;2024-03-06T06:45:48;93007.19;;;6.65;74.97
8756;BME280;4414;42.670;23.228;2024-03-06T06:48:14;93013.75;;;6.64;75.08
8756;BME280;4414;42.670;23.228;2024-03-06T06:50:39;93015.44;;;6.62;75.79
8756;BME280;4414;42.670;23.228;2024-03-06T06:53:05;93020.50;;;6.71;74.28
8756;BME280;4414;42.670;23.228;2024-03-06T06:55:30;93020.50;;;6.71;72.70
8756;BME280;4414;42.670;23.228;2024-03-06T06:57:56;93022.72;;;6.61;72.94
8756;BME280;4414;42.670;23.228;2024-03-06T07:00:22;93026.00;;;6.78;72.98
8756;BME280;4414;42.670;23.228;2024-03-06T07:02:48;93026.63;;;6.90;73.40
8756;BME280;4414;42.670;23.228;2024-03-06T07:05:14;93030.97;;;6.93;73.71
8756;BME280;4414;42.670;23.228;2024-03-06T07:07:40;93028.25;;;6.69;73.72
8756;BME280;4414;42.670;23.228;2024-03-06T07:10:06;93034.75;;;6.73;73.53
8756;BME280;4414;42.670;23.228;2024-03-06T07:12:32;93032.84;;;6.68;73.45
8756;BME280;4414;42.670;23.228;2024-03-06T07:14:58;93033.59;;;6.69;74.74
8756;BME280;4414;42.670;23.228;2024-03-06T07:17:24;93030.19;;;6.68;73.28
8756;BME280;4414;42.670;23.228;2024-03-06T07:19:49;93024.53;;;6.77;73.00
8756;BME280;4414;42.670;23.228;2024-03-06T07:22:16;93027.19;;;6.77;72.32
8756;BME280;4414;42.670;23.228;2024-03-06T07:24:41;93030.75;;;6.56;71.96
8756;BME280;4414;42.670;23.228;2024-03-06T07:27:07;93035.56;;;6.63;72.47
8756;BME280;4414;42.670;23.228;2024-03-06T07:29:36;93035.81;;;6.65;73.06
8756;BME280;4414;42.670;23.228;2024-03-06T07:32:02;93040.16;;;6.62;71.39
8756;BME280;4414;42.670;23.228;2024-03-06T07:34:28;93037.63;;;6.75;72.82
8756;BME280;4414;42.670;23.228;2024-03-06T07:36:53;93034.56;;;7.01;72.43
8756;BME280;4414;42.670;23.228;2024-03-06T07:39:19;93033.19;;;7.19;70.55
8756;BME280;4414;42.670;23.228;2024-03-06T07:41:45;93032.31;;;7.35;70.08
8756;BME280;4414;42.670;23.228;2024-03-06T07:44:11;93034.00;;;7.32;68.67
8756;BME280;4414;42.670;23.228;2024-03-06T07:46:36;93024.50;;;7.13;68.56
8756;BME280;4414;42.670;23.228;2024-03-06T07:49:02;93028.03;;;6.97;69.79
8756;BME280;4414;42.670;23.228;2024-03-06T07:51:29;93021.47;;;6.98;70.39
8756;BME280;4414;42.670;23.228;2024-03-06T07:53:55;93022.38;;;7.06;69.24
8756;BME280;4414;42.670;23.228;2024-03-06T07:56:21;93022.13;;;7.09;70.31
8756;BME280;4414;42.670;23.228;2024-03-06T07:58:46;93027.44;;;7.09;69.21
8756;BME280;4414;42.670;23.228;2024-03-06T08:01:12;93033.59;;;6.99;70.35
8756;BME280;4414;42.670;23.228;2024-03-06T08:03:39;93029.63;;;7.11;69.57
8756;BME280;4414;42.670;23.228;2024-03-06T08:06:05;93036.91;;;7.34;69.25
8756;BME280;4414;42.670;23.228;2024-03-06T08:08:31;93043.41;;;7.39;68.31
8756;BME280;4414;42.670;23.228;2024-03-06T08:10:56;93040.03;;;7.38;69.02
8756;BME280;4414;42.670;23.228;2024-03-06T08:13:22;93043.72;;;7.35;67.81
8756;BME280;4414;42.670;23.228;2024-03-06T08:15:48;93040.31;;;7.35;68.38
8756;BME280;4414;42.670;23.228;2024-03-06T08:18:13;93042.81;;;7.51;68.41
8756;BME280;4414;42.670;23.228;2024-03-06T08:20:40;93047.38;;;7.56;67.21
8756;BME280;4414;42.670;23.228;2024-03-06T08:23:07;93046.84;;;7.82;67.17
8756;BME280;4414;42.670;23.228;2024-03-06T08:25:33;93042.31;;;7.96;65.18
8756;BME280;4414;42.670;23.228;2024-03-06T08:27:58;93044.28;;;8.14;65.96
8756;BME280;4414;42.670;23.228;2024-03-06T08:30:24;93039.22;;;8.10;65.18
8756;BME280;4414;42.670;23.228;2024-03-06T08:32:50;93036.34;;;8.08;65.37
8756;BME280;4414;42.670;23.228;2024-03-06T08:35:16;93041.56;;;8.19;64.08
8756;BME280;4414;42.670;23.228;2024-03-06T08:37:43;93037.25;;;8.35;64.87
8756;BME280;4414;42.670;23.228;2024-03-06T08:40:10;93045.16;;;8.22;64.75
8756;BME280;4414;42.670;23.228;2024-03-06T08:42:42;93048.44;;;8.33;64.08
8756;BME280;4414;42.670;23.228;2024-03-06T08:45:08;93040.41;;;8.52;64.07
8756;BME280;4414;42.670;23.228;2024-03-06T08:47:34;93035.56;;;8.50;64.21
8756;BME280;4414;42.670;23.228;2024-03-06T08:49:59;93043.63;;;8.82;64.44
8756;BME280;4414;42.670;23.228;2024-03-06T08:52:25;93043.38;;;8.99;62.89
8756;BME280;4414;42.670;23.228;2024-03-06T08:54:50;93040.19;;;9.00;62.64
8756;BME280;4414;42.670;23.228;2024-03-06T08:57:16;93049.09;;;9.21;62.44
8756;BME280;4414;42.670;23.228;2024-03-06T08:59:41;93040.69;;;9.43;62.52
8756;BME280;4414;42.670;23.228;2024-03-06T09:02:13;93042.69;;;9.11;61.09
8756;BME280;4414;42.670;23.228;2024-03-06T09:04:40;93053.88;;;9.10;63.26
8756;BME280;4414;42.670;23.228;2024-03-06T09:07:05;93046.41;;;9.21;61.36
8756;BME280;4414;42.670;23.228;2024-03-06T09:09:31;93046.03;;;9.43;59.90
8756;BME280;4414;42.670;23.228;2024-03-06T09:12:08;93038.13;;;9.51;59.86
8756;BME280;4414;42.670;23.228;2024-03-06T09:14:40;93050.59;;;9.62;60.39
8756;BME280;4414;42.670;23.228;2024-03-06T09:17:06;93044.50;;;9.61;60.38
8756;BME280;4414;42.670;23.228;2024-03-06T09:19:34;93042.44;;;9.80;59.26
8756;BME280;4414;42.670;23.228;2024-03-06T09:22:00;93044.00;;;9.76;59.72
8756;BME280;4414;42.670;23.228;2024-03-06T09:24:26;93042.78;;;9.90;58.36
8756;BME280;4414;42.670;23.228;2024-03-06T09:26:52;93047.50;;;9.84;58.10
8756;BME280;4414;42.670;23.228;2024-03-06T09:29:18;93048.44;;;9.99;57.93
8756;BME280;4414;42.670;23.228;2024-03-06T09:31:44;93048.63;;;10.14;57.56
8756;BME280;4414;42.670;23.228;2024-03-06T09:34:11;93038.44;;;10.00;57.94
8756;BME280;4414;42.670;23.228;2024-03-06T09:36:40;93042.03;;;10.02;59.00
8756;BME280;4414;42.670;23.228;2024-03-06T09:39:13;93048.13;;;10.03;57.34
8756;BME280;4414;42.670;23.228;2024-03-06T09:41:41;93039.78;;;10.19;56.19
8756;BME280;4414;42.670;23.228;2024-03-06T09:44:07;93038.44;;;10.26;56.27
8756;BME280;4414;42.670;23.228;2024-03-06T09:46:33;93037.22;;;10.14;55.39
8756;BME280;4414;42.670;23.228;2024-03-06T09:49:01;93047.53;;;10.10;57.34
8756;BME280;4414;42.670;23.228;2024-03-06T09:51:27;93040.69;;;9.83;57.53
8756;BME280;4414;42.670;23.228;2024-03-06T09:53:54;93048.34;;;9.92;57.40
8756;BME280;4414;42.670;23.228;2024-03-06T09:56:19;93040.91;;;9.85;58.23
8756;BME280;4414;42.670;23.228;2024-03-06T09:58:48;93034.22;;;9.91;58.48
8756;BME280;4414;42.670;23.228;2024-03-06T10:01:14;93028.81;;;10.04;57.36
8756;BME280;4414;42.670;23.228;2024-03-06T10:03:40;93026.69;;;10.16;55.93
8756;BME280;4414;42.670;23.228;2024-03-06T10:06:09;93031.56;;;10.51;55.78
8756;BME280;4414;42.670;23.228;2024-03-06T10:08:35;93030.59;;;10.82;54.31
8756;BME280;4414;42.670;23.228;2024-03-06T10:11:03;93026.22;;;10.92;53.87
8756;BME280;4414;42.670;23.228;2024-03-06T10:13:29;93029.72;;;11.21;53.18
8756;BME280;4414;42.670;23.228;2024-03-06T10:16:02;93025.31;;;11.10;52.53
8756;BME280;4414;42.670;23.228;2024-03-06T10:18:29;93015.88;;;11.38;54.43
8756;BME280;4414;42.670;23.228;2024-03-06T10:20:56;93013.44;;;11.68;53.16
8756;BME280;4414;42.670;23.228;2024-03-06T10:23:24;93022.75;;;11.74;50.85
8756;BME280;4414;42.670;23.228;2024-03-06T10:25:50;93016.47;;;12.00;50.25
8756;BME280;4414;42.670;23.228;2024-03-06T10:28:18;93009.91;;;11.80;49.51
8756;BME280;4414;42.670;23.228;2024-03-06T10:30:43;93007.06;;;11.58;50.44
8756;BME280;4414;42.670;23.228;2024-03-06T10:33:12;93011.50;;;11.76;50.40
8756;BME280;4414;42.670;23.228;2024-03-06T10:35:40;93004.59;;;11.88;49.81
8756;BME280;4414;42.670;23.228;2024-03-06T10:38:06;93003.28;;;12.17;48.96
8756;BME280;4414;42.670;23.228;2024-03-06T10:40:35;93002.63;;;12.39;47.50
8756;BME280;4414;42.670;23.228;2024-03-06T10:43:03;93000.00;;;12.54;46.64
8756;BME280;4414;42.670;23.228;2024-03-06T10:45:57;92999.63;;;12.50;47.62
8756;BME280;4414;42.670;23.228;2024-03-06T10:48:26;92996.25;;;12.65;46.50
8756;BME280;4414;42.670;23.228;2024-03-06T10:50:53;92986.06;;;12.78;44.09
8756;BME280;4414;42.670;23.228;2024-03-06T10:53:20;92989.25;;;12.62;45.43
8756;BME280;4414;42.670;23.228;2024-03-06T10:55:46;92981.06;;;12.90;45.31
8756;BME280;4414;42.670;23.228;2024-03-06T10:58:12;92975.28;;;12.71;45.62
8756;BME280;4414;42.670;23.228;2024-03-06T11:00:42;92971.34;;;12.72;43.57
8756;BME280;4414;42.670;23.228;2024-03-06T11:03:09;92968.84;;;12.97;44.96
8756;BME280;4414;42.670;23.228;2024-03-06T11:05:41;92963.84;;;13.31;44.58
8756;BME280;4414;42.670;23.228;2024-03-06T11:08:07;92964.16;;;13.57;43.13
8756;BME280;4414;42.670;23.228;2024-03-06T11:10:34;92965.81;;;13.45;42.50
8756;BME280;4414;42.670;23.228;2024-03-06T11:13:03;92960.25;;;13.28;43.67
8756;BME280;4414;42.670;23.228;2024-03-06T11:15:30;92947.84;;;12.80;45.07
8756;BME280;4414;42.670;23.228;2024-03-06T11:17:55;92953.94;;;12.88;46.27
8756;BME280;4414;42.670;23.228;2024-03-06T11:20:21;92945.91;;;13.18;44.65
8756;BME280;4414;42.670;23.228;2024-03-06T11:28:21;92942.47;;;13.40;42.45
8756;BME280;4414;42.670;23.228;2024-03-06T11:33:23;92930.97;;;13.25;44.25
8756;BME280;4414;42.670;23.228;2024-03-06T11:41:22;92926.81;;;13.46;44.19
8756;BME280;4414;42.670;23.228;2024-03-06T11:43:49;92928.50;;;13.89;42.65
8756;BME280;4414;42.670;23.228;2024-03-06T11:46:26;92925.94;;;14.06;43.15
8756;BME280;4414;42.670;23.228;2024-03-06T11:49:14;92917.38;;;14.25;39.11
8756;BME280;4414;42.670;23.228;2024-03-06T11:51:41;92915.19;;;14.38;39.42
8756;BME280;4414;42.670;23.228;2024-03-06T11:54:07;92910.81;;;14.11;40.12
8756;BME280;4414;42.670;23.228;2024-03-06T11:56:32;92912.50;;;14.38;40.24
8756;BME280;4414;42.670;23.228;2024-03-06T11:58:58;92908.09;;;14.75;38.05
8756;BME280;4414;42.670;23.228;2024-03-06T12:01:24;92900.81;;;14.85;37.36
8756;BME280;4414;42.670;23.228;2024-03-06T12:03:50;92901.84;;;15.14;37.16
8756;BME280;4414;42.670;23.228;2024-03-06T12:06:15;92904.81;;;15.26;34.29
8756;BME280;4414;42.670;23.228;2024-03-06T12:08:42;92898.50;;;14.82;35.48
8756;BME280;4414;42.670;23.228;2024-03-06T12:11:07;92900.66;;;14.83;37.05
8756;BME280;4414;42.670;23.228;2024-03-06T12:13:33;92896.59;;;14.75;35.45
8756;BME280;4414;42.670;23.228;2024-03-06T12:16:04;92908.34;;;14.37;37.50
8756;BME280;4414;42.670;23.228;2024-03-06T12:18:30;92892.38;;;14.24;37.81
8756;BME280;4414;42.670;23.228;2024-03-06T12:20:55;92896.03;;;14.12;37.74
8756;BME280;4414;42.670;23.228;2024-03-06T12:23:22;92894.28;;;14.07;38.53
8756;BME280;4414;42.670;23.228;2024-03-06T12:26:04;92892.41;;;13.77;38.77
8756;BME280;4414;42.670;23.228;2024-03-06T12:28:29;92893.31;;;13.80;39.57
8756;BME280;4414;42.670;23.228;2024-03-06T12:30:55;92888.34;;;13.53;38.69
8756;BME280;4414;42.670;23.228;2024-03-06T12:33:21;92878.69;;;13.50;38.52
8756;BME280;4414;42.670;23.228;2024-03-06T12:35:46;92878.84;;;13.45;38.73
8756;BME280;4414;42.670;23.228;2024-03-06T12:38:17;92882.81;;;13.44;38.16
8756;BME280;4414;42.670;23.228;2024-03-06T12:40:42;92879.53;;;13.60;38.22
8756;BME280;4414;42.670;23.228;2024-03-06T12:43:08;92880.09;;;13.51;38.96
8756;BME280;4414;42.670;23.228;2024-03-06T12:45:35;92883.16;;;13.48;39.56
8756;BME280;4414;42.670;23.228;2024-03-06T12:48:01;92886.16;;;13.67;38.24
8756;BME280;4414;42.670;23.228;2024-03-06T12:50:27;92875.00;;;13.71;38.64
8756;BME280;4414;42.670;23.228;2024-03-06T12:52:53;92880.94;;;13.69;38.33
8756;BME280;4414;42.670;23.228;2024-03-06T12:55:18;92882.63;;;13.49;41.45
8756;BME280;4414;42.670;23.228;2024-03-06T12:57:45;92893.97;;;13.40;44.74
8756;BME280;4414;42.670;23.228;2024-03-06T13:00:11;92885.03;;;13.15;45.66
8756;BME280;4414;42.670;23.228;2024-03-06T13:02:44;92889.16;;;12.94;46.80
8756;BME280;4414;42.670;23.228;2024-03-06T13:05:16;92875.50;;;12.69;46.35
8756;BME280;4414;42.670;23.228;2024-03-06T13:08:05;92880.00;;;12.36;47.76
8756;BME280;4414;42.670;23.228;2024-03-06T13:13:45;92888.44;;;11.46;50.49
8756;BME280;4414;42.670;23.228;2024-03-06T13:16:10;92897.91;;;11.40;49.91
8756;BME280;4414;42.670;23.228;2024-03-06T13:18:36;92893.41;;;11.06;51.04
8756;BME280;4414;42.670;23.228;2024-03-06T13:21:02;92892.31;;;11.02;50.25
8756;BME280;4414;42.670;23.228;2024-03-06T13:23:28;92897.94;;;10.91;50.78
8756;BME280;4414;42.670;23.228;2024-03-06T13:25:53;92893.84;;;10.90;51.28
8756;BME280;4414;42.670;23.228;2024-03-06T13:28:19;92894.41;;;10.96;51.53
8756;BME280;4414;42.670;23.228;2024-03-06T13:30:46;92893.69;;;10.95;50.21
8756;BME280;4414;42.670;23.228;2024-03-06T13:33:11;92897.38;;;10.85;51.08
8756;BME280;4414;42.670;23.228;2024-03-06T13:35:44;92893.84;;;10.90;51.70
8756;BME280;4414;42.670;23.228;2024-03-06T13:38:35;92897.50;;;11.00;50.99
8756;BME280;4414;42.670;23.228;2024-03-06T13:41:01;92899.41;;;11.20;51.76
8756;BME280;4414;42.670;23.228;2024-03-06T13:43:30;92898.38;;;11.31;49.99
8756;BME280;4414;42.670;23.228;2024-03-06T13:46:02;92901.31;;;11.40;50.28
8756;BME280;4414;42.670;23.228;2024-03-06T13:48:28;92901.56;;;11.57;49.55
8756;BME280;4414;42.670;23.228;2024-03-06T13:50:53;92894.84;;;11.36;49.69
8756;BME280;4414;42.670;23.228;2024-03-06T13:53:19;92889.06;;;11.24;50.39
8756;BME280;4414;42.670;23.228;2024-03-06T13:55:44;92896.28;;;11.08;50.08
8756;BME280;4414;42.670;23.228;2024-03-06T13:58:10;92888.13;;;10.93;51.57
8756;BME280;4414;42.670;23.228;2024-03-06T14:00:36;92893.16;;;10.97;50.71
8756;BME280;4414;42.670;23.228;2024-03-06T14:03:01;92899.28;;;11.05;51.08
8756;BME280;4414;42.670;23.228;2024-03-06T14:05:26;92896.66;;;11.12;49.92
8756;BME280;4414;42.670;23.228;2024-03-06T14:07:52;92901.84;;;11.10;50.13
8756;BME280;4414;42.670;23.228;2024-03-06T14:10:18;92898.56;;;11.04;50.59
8756;BME280;4414;42.670;23.228;2024-03-06T14:12:48;92895.56;;;11.08;50.99
8756;BME280;4414;42.670;23.228;2024-03-06T14:15:17;92894.50;;;11.11;51.47
8756;BME280;4414;42.670;23.228;2024-03-06T14:17:44;92905.28;;;11.19;50.55
8756;BME280;4414;42.670;23.228;2024-03-06T14:20:10;92906.41;;;11.23;51.27
8756;BME280;4414;42.670;23.228;2024-03-06T14:22:37;92904.66;;;11.05;52.63
8756;BME280;4414;42.670;23.228;2024-03-06T14:25:04;92903.22;;;10.76;54.48
8756;BME280;4414;42.670;23.228;2024-03-06T14:27:30;92902.25;;;10.66;56.49
8756;BME280;4414;42.670;23.228;2024-03-06T14:29:58;92904.84;;;10.38;58.89
8756;BME280;4414;42.670;23.228;2024-03-06T14:32:23;92913.00;;;10.32;61.91
8756;BME280;4414;42.670;23.228;2024-03-06T14:34:50;92903.72;;;9.99;63.36
8756;BME280;4414;42.670;23.228;2024-03-06T14:37:16;92907.47;;;9.83;65.37
8756;BME280;4414;42.670;23.228;2024-03-06T14:39:51;92899.41;;;9.50;66.42
8756;BME280;4414;42.670;23.228;2024-03-06T14:42:19;92911.66;;;9.32;68.58
8756;BME280;4414;42.670;23.228;2024-03-06T14:44:49;92915.16;;;9.01;69.23
8756;BME280;4414;42.670;23.228;2024-03-06T14:47:20;92914.53;;;8.95;69.66
8756;BME280;4414;42.670;23.228;2024-03-06T14:49:46;92916.06;;;8.90;71.20
8756;BME280;4414;42.670;23.228;2024-03-06T14:52:14;92917.50;;;8.78;72.08
8756;BME280;4414;42.670;23.228;2024-03-06T14:54:42;92908.41;;;8.68;72.70
8756;BME280;4414;42.670;23.228;2024-03-06T14:57:11;92918.09;;;8.71;73.48
8756;BME280;4414;42.670;23.228;2024-03-06T14:59:36;92909.03;;;8.61;74.03
8756;BME280;4414;42.670;23.228;2024-03-06T15:02:03;92925.28;;;8.63;73.68
8756;BME280;4414;42.670;23.228;2024-03-06T15:04:29;92926.03;;;8.64;73.76
8756;BME280;4414;42.670;23.228;2024-03-06T15:07:04;92919.63;;;8.53;74.21
8756;BME280;4414;42.670;23.228;2024-03-06T15:09:29;92922.91;;;8.60;74.65
8756;BME280;4414;42.670;23.228;2024-03-06T15:11:57;92910.34;;;8.54;74.59